createdAt,value
2023-01-29T00:01:13.711Z,70.11
2023-01-29T00:03:42.753Z,70.17
2023-01-29T00:06:12.968Z,70.15
2023-01-29T00:08:41.854Z,70.26
2023-01-29T00:11:12.906Z,70.60
2023-01-29T00:13:42.015Z,70.62
2023-01-29T00:16:12.192Z,70.30
2023-01-29T00:18:41.682Z,70.45
2023-01-29T00:21:11.895Z,70.53
2023-01-29T00:23:41.012Z,70.76
2023-01-29T00:26:11.956Z,70.96
2023-01-29T00:28:45.486Z,70.81
2023-01-29T00:31:17.089Z,70.88
2023-01-29T00:33:46.829Z,70.83
2023-01-29T00:36:17.831Z,70.82
2023-01-29T00:38:54.932Z,70.93
2023-01-29T00:41:46.620Z,71.06
2023-01-29T00:44:33.513Z,71.11
2023-01-29T00:47:03.739Z,71.24
2023-01-29T00:49:32.737Z,71.70
2023-01-29T00:52:19.564Z,71.47
2023-01-29T00:54:48.673Z,71.44
2023-01-29T00:57:19.470Z,71.37
2023-01-29T00:59:48.874Z,71.42
2023-01-29T01:02:36.374Z,71.50
2023-01-29T01:05:07.937Z,71.90
2023-01-29T01:07:37.543Z,71.72
2023-01-29T01:10:21.186Z,71.94
2023-01-29T01:12:55.704Z,71.94
2023-01-29T01:15:26.300Z,72.35
2023-01-29T01:17:58.148Z,72.46
2023-01-29T01:20:29.201Z,72.88
2023-01-29T01:22:59.077Z,72.98
2023-01-29T01:25:28.665Z,73.20
2023-01-29T01:28:02.943Z,73.22
2023-01-29T01:30:33.154Z,73.21
2023-01-29T01:33:03.706Z,73.51
2023-01-29T01:35:32.900Z,73.71
2023-01-29T01:38:02.335Z,73.41
2023-01-29T01:40:31.495Z,73.68
2023-01-29T01:43:03.008Z,73.70
2023-01-29T01:45:33.892Z,73.63
2023-01-29T01:48:08.638Z,73.64
2023-01-29T01:50:44.423Z,73.58
2023-01-29T01:53:17.872Z,73.33
2023-01-29T01:55:53.894Z,73.49
2023-01-29T01:58:28.122Z,73.69
2023-01-29T02:00:58.051Z,73.90
2023-01-29T02:03:46.590Z,73.79
2023-01-29T02:06:33.543Z,73.90
2023-01-29T02:09:24.719Z,73.58
2023-01-29T02:11:54.101Z,74.15
2023-01-29T02:14:25.446Z,74.02
2023-01-29T02:16:54.686Z,73.96
2023-01-29T02:19:33.781Z,73.79
2023-01-29T02:22:31.011Z,73.59
2023-01-29T02:25:32.339Z,74.33
2023-01-29T02:28:26.728Z,73.89
2023-01-29T02:31:07.395Z,73.93
2023-01-29T02:33:45.480Z,74.42
2023-01-29T02:36:24.070Z,74.41
2023-01-29T02:39:01.275Z,74.05
2023-01-29T02:41:36.265Z,74.74
2023-01-29T02:44:12.977Z,74.73
2023-01-29T02:46:51.048Z,74.70
2023-01-29T02:49:28.757Z,74.89
2023-01-29T02:52:04.416Z,74.64
2023-01-29T02:54:41.070Z,74.85
2023-01-29T02:57:18.238Z,74.92
2023-01-29T02:59:53.787Z,74.72
2023-01-29T03:02:31.766Z,74.87
2023-01-29T03:05:04.906Z,74.93
2023-01-29T03:07:44.992Z,74.51
2023-01-29T03:10:25.839Z,74.63
2023-01-29T03:13:01.724Z,75.29
2023-01-29T03:15:38.866Z,74.60
2023-01-29T03:18:31.413Z,74.50
2023-01-29T03:21:27.971Z,74.51
2023-01-29T03:24:18.912Z,74.83
2023-01-29T03:27:06.848Z,74.73
2023-01-29T03:29:58.914Z,74.38
2023-01-29T03:33:11.326Z,74.64
2023-01-29T03:35:48.715Z,74.81
2023-01-29T03:38:18.247Z,74.60
2023-01-29T03:40:52.644Z,74.89
2023-01-29T03:43:33.729Z,74.84
2023-01-29T03:46:10.166Z,74.88
2023-01-29T03:48:47.203Z,75.23
2023-01-29T03:51:24.051Z,75.06
2023-01-29T03:54:02.101Z,75.12
2023-01-29T03:56:47.991Z,75.43
2023-01-29T03:59:24.304Z,75.10
2023-01-29T04:02:28.186Z,75.18
2023-01-29T04:05:08.167Z,75.38
2023-01-29T04:07:46.664Z,75.06
2023-01-29T04:10:20.870Z,75.40
2023-01-29T04:12:53.657Z,75.00
2023-01-29T04:15:26.699Z,75.24
2023-01-29T04:17:58.364Z,75.52
2023-01-29T04:20:41.735Z,75.11
2023-01-29T04:23:22.713Z,75.74
2023-01-29T04:26:08.109Z,75.43
2023-01-29T04:28:54.755Z,75.30
2023-01-29T04:31:29.005Z,75.41
2023-01-29T04:34:12.447Z,75.04
2023-01-29T04:36:57.826Z,75.31
2023-01-29T04:39:33.090Z,74.96
2023-01-29T04:42:13.536Z,75.00
2023-01-29T04:44:50.618Z,74.97
2023-01-29T04:47:30.422Z,75.05
2023-01-29T04:50:08.704Z,75.29
2023-01-29T04:52:50.738Z,75.01
2023-01-29T04:55:27.544Z,75.20
2023-01-29T04:58:04.443Z,75.13
2023-01-29T05:00:38.112Z,74.99
2023-01-29T05:03:09.777Z,74.92
2023-01-29T05:05:41.781Z,75.03
2023-01-29T05:08:15.529Z,75.20
2023-01-29T05:10:46.774Z,75.20
2023-01-29T05:13:18.223Z,75.00
2023-01-29T05:15:54.226Z,75.25
2023-01-29T05:18:23.521Z,74.90
2023-01-29T05:20:52.849Z,75.35
2023-01-29T05:23:24.647Z,75.75
2023-01-29T05:25:54.156Z,75.21
2023-01-29T05:28:22.287Z,75.49
2023-01-29T05:30:54.371Z,75.55
2023-01-29T05:33:25.243Z,75.32
2023-01-29T05:35:55.392Z,74.96
2023-01-29T05:38:26.194Z,75.80
2023-01-29T05:40:55.529Z,75.55
2023-01-29T05:43:26.268Z,75.58
2023-01-29T05:45:56.630Z,75.32
2023-01-29T05:48:27.697Z,75.47
2023-01-29T05:51:01.295Z,75.56
2023-01-29T05:53:33.390Z,75.46
2023-01-29T05:56:03.841Z,75.56
2023-01-29T05:58:33.602Z,75.46
2023-01-29T06:01:11.507Z,75.33
2023-01-29T06:03:40.665Z,75.44
2023-01-29T06:06:10.296Z,75.66
2023-01-29T06:08:41.385Z,75.37
2023-01-29T06:11:12.680Z,75.48
2023-01-29T06:13:42.403Z,75.05
2023-01-29T06:16:12.853Z,75.38
2023-01-29T06:18:42.873Z,75.19
2023-01-29T06:21:14.746Z,75.36
2023-01-29T06:23:45.395Z,75.05
2023-01-29T06:26:16.831Z,75.14
2023-01-29T06:28:46.277Z,75.97
2023-01-29T06:31:33.076Z,75.33
2023-01-29T06:34:05.035Z,75.83
2023-01-29T06:36:34.378Z,75.83
2023-01-29T06:39:05.142Z,75.81
2023-01-29T06:41:34.657Z,75.64
2023-01-29T06:44:03.756Z,75.43
2023-01-29T06:46:33.081Z,76.06
2023-01-29T06:49:02.371Z,76.25
2023-01-29T06:51:31.915Z,76.08
2023-01-29T06:54:01.135Z,77.03
2023-01-29T06:56:31.913Z,76.53
2023-01-29T06:59:01.272Z,76.41
2023-01-29T07:01:36.228Z,76.33
2023-01-29T07:04:05.905Z,76.87
2023-01-29T07:06:35.427Z,76.69
2023-01-29T07:09:04.576Z,77.07
2023-01-29T07:11:38.069Z,77.00
2023-01-29T07:14:07.417Z,76.74
2023-01-29T07:16:36.717Z,76.51
2023-01-29T07:19:05.882Z,77.27
2023-01-29T07:21:35.169Z,76.62
2023-01-29T07:24:04.405Z,76.79
2023-01-29T07:26:35.101Z,77.51
2023-01-29T07:29:05.974Z,77.24
2023-01-29T07:31:35.751Z,76.95
2023-01-29T07:34:05.173Z,76.74
2023-01-29T07:36:34.451Z,76.81
2023-01-29T07:39:03.561Z,76.81
2023-01-29T07:41:34.431Z,77.08
2023-01-29T07:44:03.476Z,76.82
2023-01-29T07:46:32.772Z,76.56
2023-01-29T07:49:01.907Z,76.73
2023-01-29T07:51:31.191Z,76.62
2023-01-29T07:54:00.527Z,76.82
2023-01-29T07:56:29.925Z,77.06
2023-01-29T07:59:00.814Z,76.89
2023-01-29T08:01:30.658Z,76.61
2023-01-29T08:03:59.831Z,76.80
2023-01-29T08:06:29.266Z,76.61
2023-01-29T08:08:59.736Z,77.04
2023-01-29T08:11:29.183Z,76.87
2023-01-29T08:13:59.600Z,76.96
2023-01-29T08:16:29.109Z,76.88
2023-01-29T08:18:58.101Z,76.81
2023-01-29T08:21:27.509Z,76.96
2023-01-29T08:23:56.589Z,76.99
2023-01-29T08:26:27.417Z,77.00
2023-01-29T08:28:56.518Z,76.88
2023-01-29T08:31:27.251Z,76.84
2023-01-29T08:33:56.418Z,76.93
2023-01-29T08:36:25.744Z,76.74
2023-01-29T08:38:54.910Z,76.82
2023-01-29T08:41:24.195Z,76.74
2023-01-29T08:43:53.382Z,76.59
2023-01-29T08:46:22.791Z,76.81
2023-01-29T08:48:53.330Z,76.72
2023-01-29T08:51:23.310Z,76.85
2023-01-29T08:53:52.302Z,76.82
2023-01-29T08:56:21.827Z,76.94
2023-01-29T08:58:51.400Z,76.97
2023-01-29T09:01:21.122Z,76.91
2023-01-29T09:03:50.609Z,77.06
2023-01-29T09:06:21.438Z,76.95
2023-01-29T09:08:50.929Z,76.96
2023-01-29T09:11:20.237Z,76.81
2023-01-29T09:13:49.359Z,77.06
2023-01-29T09:16:18.723Z,76.85
2023-01-29T09:18:47.892Z,76.76
2023-01-29T09:21:17.219Z,76.65
2023-01-29T09:23:47.782Z,76.54
2023-01-29T09:26:17.204Z,76.63
2023-01-29T09:28:46.211Z,76.52
2023-01-29T09:31:15.713Z,76.26
2023-01-29T09:33:44.778Z,76.21
2023-01-29T09:36:14.771Z,76.34
2023-01-29T09:38:43.724Z,76.30
2023-01-29T09:41:28.148Z,76.19
2023-01-29T09:44:01.588Z,76.07
2023-01-29T09:46:39.631Z,75.97
2023-01-29T09:49:14.811Z,76.08
2023-01-29T09:51:50.325Z,76.11
2023-01-29T09:54:24.266Z,76.05
2023-01-29T09:56:58.157Z,75.78
2023-01-29T09:59:31.109Z,75.89
2023-01-29T10:02:11.468Z,75.77
2023-01-29T10:04:59.432Z,75.47
2023-01-29T10:07:58.653Z,75.64
2023-01-29T10:10:43.227Z,75.53
2023-01-29T10:13:25.715Z,75.62
2023-01-29T10:16:11.137Z,75.71
2023-01-29T10:19:04.170Z,75.79
2023-01-29T10:22:02.065Z,75.71
2023-01-29T10:24:38.932Z,75.61
2023-01-29T10:27:16.003Z,75.65
2023-01-29T10:29:51.614Z,75.55
2023-01-29T10:32:23.072Z,75.47
2023-01-29T10:34:57.656Z,75.62
2023-01-29T10:37:36.177Z,75.57
2023-01-29T10:40:24.795Z,75.72
2023-01-29T10:43:02.396Z,75.58
2023-01-29T10:45:43.030Z,75.57
2023-01-29T10:48:34.871Z,75.52
2023-01-29T10:51:14.740Z,75.60
2023-01-29T10:53:53.914Z,75.62
2023-01-29T10:56:45.467Z,75.71
2023-01-29T10:59:50.380Z,75.84
2023-01-29T11:02:22.886Z,75.77
2023-01-29T11:04:52.121Z,75.83
2023-01-29T11:07:23.418Z,75.85
2023-01-29T11:09:58.840Z,75.97
2023-01-29T11:12:33.543Z,76.14
2023-01-29T11:15:08.100Z,75.85
2023-01-29T11:17:42.310Z,75.51
2023-01-29T11:20:28.868Z,75.71
2023-01-29T11:22:59.847Z,75.65
2023-01-29T11:25:29.947Z,75.59
2023-01-29T11:28:02.066Z,75.82
2023-01-29T11:30:33.525Z,75.73
2023-01-29T11:33:13.337Z,75.69
2023-01-29T11:35:42.706Z,75.52
2023-01-29T11:38:22.970Z,75.41
2023-01-29T11:40:54.676Z,75.21
2023-01-29T11:43:34.277Z,75.28
2023-01-29T11:46:06.469Z,75.17
2023-01-29T11:48:43.085Z,75.09
2023-01-29T11:51:14.865Z,75.18
2023-01-29T11:53:46.871Z,75.31
2023-01-29T11:56:24.445Z,75.36
2023-01-29T11:58:57.652Z,75.41
2023-01-29T12:01:35.577Z,75.41
2023-01-29T12:04:17.621Z,75.48
2023-01-29T12:06:51.140Z,75.35
2023-01-29T12:09:23.580Z,75.33
2023-01-29T12:11:53.131Z,75.22
2023-01-29T12:14:30.291Z,75.17
2023-01-29T12:17:05.419Z,75.08
2023-01-29T12:19:42.672Z,75.14
2023-01-29T12:22:18.977Z,75.18
2023-01-29T12:24:55.022Z,75.28
2023-01-29T12:27:32.517Z,75.10
2023-01-29T12:30:07.304Z,75.17
2023-01-29T12:32:46.846Z,75.16
2023-01-29T12:35:24.321Z,75.50
2023-01-29T12:38:01.208Z,75.34
2023-01-29T12:40:36.212Z,75.38
2023-01-29T12:43:13.569Z,75.37
2023-01-29T12:45:45.049Z,75.55
2023-01-29T12:48:21.018Z,75.26
2023-01-29T12:50:54.042Z,75.60
2023-01-29T12:53:28.893Z,75.35
2023-01-29T12:56:04.211Z,75.17
2023-01-29T12:58:37.661Z,75.45
2023-01-29T13:01:13.659Z,75.49
2023-01-29T13:03:51.265Z,75.47
2023-01-29T13:06:27.170Z,75.78
2023-01-29T13:08:59.959Z,75.68
2023-01-29T13:11:37.773Z,75.76
2023-01-29T13:14:14.307Z,75.62
2023-01-29T13:16:47.336Z,75.71
2023-01-29T13:19:26.873Z,75.55
2023-01-29T13:22:00.283Z,75.62
2023-01-29T13:24:36.877Z,75.46
2023-01-29T13:27:07.083Z,75.75
2023-01-29T13:29:36.199Z,75.93
2023-01-29T13:32:06.547Z,75.84
2023-01-29T13:34:38.274Z,75.78
2023-01-29T13:37:17.128Z,76.00
2023-01-29T13:39:51.162Z,75.95
2023-01-29T13:42:23.386Z,76.06
2023-01-29T13:44:55.061Z,76.28
2023-01-29T13:47:28.374Z,76.23
2023-01-29T13:50:03.075Z,76.55
2023-01-29T13:52:43.383Z,76.70
2023-01-29T13:55:26.603Z,76.52
2023-01-29T13:57:58.802Z,76.27
2023-01-29T14:00:51.953Z,76.41
2023-01-29T14:04:04.938Z,76.17
2023-01-29T14:06:52.287Z,76.31
2023-01-29T14:09:54.782Z,76.34
2023-01-29T14:12:43.765Z,76.30
2023-01-29T14:15:22.601Z,76.28
2023-01-29T14:18:20.246Z,76.38
2023-01-29T14:21:02.850Z,76.24
2023-01-29T14:23:46.199Z,76.20
2023-01-29T14:26:45.822Z,76.33
2023-01-29T14:29:34.828Z,76.29
2023-01-29T14:32:15.929Z,76.25
2023-01-29T14:34:49.124Z,76.31
2023-01-29T14:37:27.133Z,76.32
2023-01-29T14:39:59.115Z,76.10
2023-01-29T14:42:32.665Z,75.96
2023-01-29T14:45:12.555Z,75.88
2023-01-29T14:48:18.561Z,75.84
2023-01-29T14:51:00.274Z,76.06
2023-01-29T14:53:51.006Z,75.79
2023-01-29T14:56:27.486Z,75.95
2023-01-29T14:59:04.911Z,75.95
2023-01-29T15:01:39.011Z,75.76
2023-01-29T15:04:15.905Z,75.62
2023-01-29T15:06:48.081Z,75.85
2023-01-29T15:09:36.311Z,75.88
2023-01-29T15:12:17.408Z,75.59
2023-01-29T15:14:53.427Z,75.85
2023-01-29T15:17:29.909Z,75.95
2023-01-29T15:19:59.414Z,75.79
2023-01-29T15:22:30.075Z,76.14
2023-01-29T15:25:08.924Z,75.85
2023-01-29T15:27:45.277Z,76.28
2023-01-29T15:30:19.424Z,76.37
2023-01-29T15:32:50.668Z,76.25
2023-01-29T15:35:32.529Z,76.36
2023-01-29T15:38:03.874Z,76.18
2023-01-29T15:40:34.124Z,76.35
2023-01-29T15:43:03.152Z,76.21
2023-01-29T15:45:33.966Z,76.26
2023-01-29T15:48:08.633Z,75.93
2023-01-29T15:50:41.455Z,76.53
2023-01-29T15:53:15.456Z,76.39
2023-01-29T15:55:45.858Z,76.34
2023-01-29T15:58:19.111Z,76.23
2023-01-29T16:00:52.909Z,76.14
2023-01-29T16:03:25.813Z,76.51
2023-01-29T16:05:56.701Z,76.29
2023-01-29T16:08:28.143Z,76.17
2023-01-29T16:10:59.897Z,76.21
2023-01-29T16:13:31.502Z,76.18
2023-01-29T16:16:03.825Z,76.38
2023-01-29T16:18:39.482Z,76.47
2023-01-29T16:21:15.421Z,76.42
2023-01-29T16:23:49.770Z,76.59
2023-01-29T16:26:21.690Z,76.54
2023-01-29T16:28:51.854Z,76.61
2023-01-29T16:31:28.428Z,76.76
2023-01-29T16:34:01.064Z,76.56
2023-01-29T16:36:30.656Z,76.47
2023-01-29T16:39:02.252Z,76.29
2023-01-29T16:41:35.898Z,76.37
2023-01-29T16:44:27.886Z,76.44
2023-01-29T16:46:57.326Z,76.29
2023-01-29T16:49:51.125Z,76.33
2023-01-29T16:52:24.938Z,76.29
2023-01-29T16:54:59.399Z,76.57
2023-01-29T16:57:33.016Z,76.55
2023-01-29T17:00:07.497Z,76.78
2023-01-29T17:02:41.171Z,76.70
2023-01-29T17:05:20.362Z,76.63
2023-01-29T17:07:52.432Z,76.72
2023-01-29T17:10:23.121Z,76.90
2023-01-29T17:12:59.706Z,76.82
2023-01-29T17:15:35.487Z,76.88
2023-01-29T17:18:16.972Z,77.19
2023-01-29T17:20:47.712Z,76.89
2023-01-29T17:23:17.729Z,77.16
2023-01-29T17:25:47.460Z,77.11
2023-01-29T17:28:18.818Z,77.11
2023-01-29T17:31:00.085Z,77.31
2023-01-29T17:33:35.358Z,77.62
2023-01-29T17:36:06.241Z,77.09
2023-01-29T17:38:37.866Z,77.10
2023-01-29T17:41:13.086Z,77.04
2023-01-29T17:43:44.222Z,76.83
2023-01-29T17:46:17.087Z,76.96
2023-01-29T17:48:49.429Z,76.88
2023-01-29T17:51:21.021Z,76.72
2023-01-29T17:53:51.356Z,76.94
2023-01-29T17:56:27.616Z,76.95
2023-01-29T17:58:57.294Z,76.88
2023-01-29T18:01:27.879Z,77.10
2023-01-29T18:03:57.267Z,76.85
2023-01-29T18:06:30.330Z,77.44
2023-01-29T18:09:00.019Z,77.41
2023-01-29T18:11:29.592Z,77.38
2023-01-29T18:13:59.364Z,76.92
2023-01-29T18:16:37.448Z,77.18
2023-01-29T18:19:15.746Z,77.40
2023-01-29T18:21:46.549Z,77.19
2023-01-29T18:24:16.447Z,77.47
2023-01-29T18:26:45.893Z,77.45
2023-01-29T18:29:15.436Z,77.20
2023-01-29T18:31:45.045Z,77.24
2023-01-29T18:34:14.559Z,77.47
2023-01-29T18:36:48.168Z,77.12
2023-01-29T18:39:18.094Z,77.08
2023-01-29T18:41:47.216Z,77.41
2023-01-29T18:44:16.572Z,77.57
2023-01-29T18:46:45.699Z,77.76
2023-01-29T18:49:15.203Z,77.52
2023-01-29T18:51:46.146Z,77.37
2023-01-29T18:54:18.245Z,77.21
2023-01-29T18:57:13.835Z,77.49
2023-01-29T18:59:39.450Z,77.62
2023-01-29T19:02:09.284Z,77.44
2023-01-29T19:04:39.012Z,77.56
2023-01-29T19:07:10.382Z,77.61
2023-01-29T19:09:40.633Z,77.20
2023-01-29T19:12:10.037Z,77.37
2023-01-29T19:14:39.516Z,77.61
2023-01-29T19:17:09.101Z,77.55
2023-01-29T19:19:38.780Z,77.67
2023-01-29T19:22:09.258Z,77.56
2023-01-29T19:24:41.107Z,77.75
2023-01-29T19:27:10.323Z,77.39
2023-01-29T19:29:39.726Z,77.49
2023-01-29T19:32:10.021Z,77.41
2023-01-29T19:34:39.895Z,77.62
2023-01-29T19:37:10.593Z,77.43
2023-01-29T19:39:40.073Z,77.55
2023-01-29T19:42:09.092Z,77.50
2023-01-29T19:44:39.309Z,77.31
2023-01-29T19:47:08.409Z,77.47
2023-01-29T19:49:37.782Z,77.59
2023-01-29T19:52:17.297Z,77.58
2023-01-29T19:54:48.954Z,77.53
2023-01-29T19:57:20.015Z,77.47
2023-01-29T19:59:49.627Z,77.11
2023-01-29T20:02:18.817Z,77.52
2023-01-29T20:04:48.301Z,77.44
2023-01-29T20:07:19.730Z,77.37
2023-01-29T20:09:52.741Z,77.24
2023-01-29T20:12:22.238Z,77.26
2023-01-29T20:14:52.140Z,77.09
2023-01-29T20:17:23.148Z,77.27
2023-01-29T20:19:52.462Z,77.43
2023-01-29T20:22:22.292Z,77.36
2023-01-29T20:24:52.986Z,77.47
2023-01-29T20:27:22.444Z,77.47
2023-01-29T20:29:52.658Z,77.35
2023-01-29T20:32:22.475Z,77.32
2023-01-29T20:34:52.415Z,77.43
2023-01-29T20:37:21.628Z,77.45
2023-01-29T20:39:52.393Z,77.53
2023-01-29T20:42:21.675Z,77.20
2023-01-29T20:44:51.568Z,77.29
2023-01-29T20:47:20.888Z,77.30
2023-01-29T20:49:50.648Z,77.61
2023-01-29T20:52:19.687Z,77.71
2023-01-29T20:54:51.978Z,77.56
2023-01-29T20:57:22.677Z,77.47
2023-01-29T20:59:52.322Z,77.18
2023-01-29T21:02:24.531Z,77.07
2023-01-29T21:04:54.167Z,77.17
2023-01-29T21:07:23.911Z,77.16
2023-01-29T21:09:53.176Z,77.28
2023-01-29T21:12:23.616Z,77.45
2023-01-29T21:14:53.791Z,77.39
2023-01-29T21:17:22.823Z,77.57
2023-01-29T21:19:52.295Z,77.52
2023-01-29T21:22:21.361Z,77.70
2023-01-29T21:24:50.980Z,77.58
2023-01-29T21:27:20.323Z,77.44
2023-01-29T21:29:51.751Z,77.47
2023-01-29T21:32:20.992Z,77.58
2023-01-29T21:34:52.489Z,77.54
2023-01-29T21:37:21.859Z,77.70
2023-01-29T21:39:51.139Z,77.59
2023-01-29T21:42:37.798Z,77.74
2023-01-29T21:45:10.634Z,77.98
2023-01-29T21:47:40.810Z,77.71
2023-01-29T21:50:11.191Z,77.65
2023-01-29T21:52:40.484Z,77.84
2023-01-29T21:55:10.486Z,77.79
2023-01-29T21:57:39.530Z,77.84
2023-01-29T22:00:12.526Z,77.93
2023-01-29T22:02:42.554Z,77.86
2023-01-29T22:05:19.440Z,77.78
2023-01-29T22:07:49.687Z,77.85
2023-01-29T22:10:20.136Z,77.82
2023-01-29T22:12:51.146Z,77.79
2023-01-29T22:15:23.767Z,77.91
2023-01-29T22:17:53.471Z,77.73
2023-01-29T22:20:29.807Z,77.73
2023-01-29T22:23:00.622Z,77.67
2023-01-29T22:25:31.513Z,77.79
2023-01-29T22:28:00.924Z,77.73
2023-01-29T22:30:32.007Z,77.44
2023-01-29T22:33:01.779Z,77.59
2023-01-29T22:35:31.264Z,77.69
2023-01-29T22:38:00.850Z,77.55
2023-01-29T22:40:30.200Z,77.67
2023-01-29T22:42:59.780Z,77.63
2023-01-29T22:45:30.327Z,77.72
2023-01-29T22:47:59.429Z,77.48
2023-01-29T22:50:28.732Z,77.75
2023-01-29T22:52:57.913Z,77.63
2023-01-29T22:55:27.227Z,77.44
2023-01-29T22:57:56.361Z,77.61
2023-01-29T23:00:25.877Z,77.64
2023-01-29T23:02:56.345Z,77.45
2023-01-29T23:05:26.120Z,77.40
2023-01-29T23:07:55.068Z,77.55
2023-01-29T23:10:24.429Z,77.49
2023-01-29T23:12:53.397Z,77.49
2023-01-29T23:15:22.809Z,77.43
2023-01-29T23:17:51.921Z,77.30
2023-01-29T23:20:22.628Z,77.73
2023-01-29T23:22:51.966Z,77.43
2023-01-29T23:25:21.288Z,77.50
2023-01-29T23:27:49.478Z,77.63
2023-01-29T23:30:19.706Z,77.46
2023-01-29T23:32:49.135Z,77.65
2023-01-29T23:35:18.500Z,77.68
2023-01-29T23:37:49.006Z,77.67
2023-01-29T23:40:19.043Z,77.56
2023-01-29T23:42:48.995Z,77.70
2023-01-29T23:45:18.156Z,77.67
2023-01-29T23:47:47.223Z,77.75
2023-01-29T23:50:16.938Z,77.63
2023-01-29T23:52:46.378Z,77.82
2023-01-29T23:55:17.317Z,77.92
2023-01-29T23:57:46.446Z,77.79
